sensor_id;sensor_type;location;lat;lon;timestamp;pressure;altitude;pressure_sealevel;temperature;humidity
21730;BME280;11027;51.030;13.812;2023-12-04T00:01:33;100800.69;;;-0.73;74.40
21730;BME280;11027;51.030;13.812;2023-12-04T00:03:58;100808.81;;;-0.75;74.14
21730;BME280;11027;51.030;13.812;2023-12-04T00:06:23;100814.38;;;-0.78;74.53
21730;BME280;11027;51.030;13.812;2023-12-04T00:08:49;100816.28;;;-0.80;74.42
21730;BME280;11027;51.030;13.812;2023-12-04T00:11:14;100818.19;;;-0.82;74.42
21730;BME280;11027;51.030;13.812;2023-12-04T00:13:39;100815.66;;;-0.85;74.12
21730;BME280;11027;51.030;13.812;2023-12-04T00:16:04;100814.91;;;-0.87;74.22
21730;BME280;11027;51.030;13.812;2023-12-04T00:18:31;100820.44;;;-0.90;74.14
21730;BME280;11027;51.030;13.812;2023-12-04T00:20:56;100811.66;;;-0.92;74.12
21730;BME280;11027;51.030;13.812;2023-12-04T00:23:21;100812.72;;;-0.95;74.12
21730;BME280;11027;51.030;13.812;2023-12-04T00:25:47;100807.59;;;-0.99;74.16
21730;BME280;11027;51.030;13.812;2023-12-04T00:28:12;100810.28;;;-0.99;74.19
21730;BME280;11027;51.030;13.812;2023-12-04T00:30:37;100806.66;;;-0.98;74.27
21730;BME280;11027;51.030;13.812;2023-12-04T00:33:02;100805.63;;;-0.96;74.25
21730;BME280;11027;51.030;13.812;2023-12-04T00:35:28;100799.59;;;-0.99;73.95
21730;BME280;11027;51.030;13.812;2023-12-04T00:37:53;100799.59;;;-0.99;73.93
21730;BME280;11027;51.030;13.812;2023-12-04T00:40:18;100805.28;;;-1.06;74.07
21730;BME280;11027;51.030;13.812;2023-12-04T00:42:43;100805.50;;;-1.09;74.03
21730;BME280;11027;51.030;13.812;2023-12-04T00:45:09;100794.97;;;-1.12;73.95
21730;BME280;11027;51.030;13.812;2023-12-04T00:47:34;100787.91;;;-1.13;73.62
21730;BME280;11027;51.030;13.812;2023-12-04T00:49:59;100795.94;;;-1.13;73.57
21730;BME280;11027;51.030;13.812;2023-12-04T00:52:24;100794.47;;;-1.18;73.53
21730;BME280;11027;51.030;13.812;2023-12-04T00:54:50;100795.53;;;-1.21;73.66
21730;BME280;11027;51.030;13.812;2023-12-04T00:57:15;100785.69;;;-1.21;73.53
21730;BME280;11027;51.030;13.812;2023-12-04T00:59:40;100783.09;;;-1.22;73.71
21730;BME280;11027;51.030;13.812;2023-12-04T01:02:07;100779.63;;;-1.24;73.51
21730;BME280;11027;51.030;13.812;2023-12-04T01:04:32;100781.53;;;-1.26;73.65
21730;BME280;11027;51.030;13.812;2023-12-04T01:06:57;100778.09;;;-1.28;73.59
21730;BME280;11027;51.030;13.812;2023-12-04T01:09:23;100778.28;;;-1.31;73.59
21730;BME280;11027;51.030;13.812;2023-12-04T01:11:52;100784.66;;;-1.34;73.65
21730;BME280;11027;51.030;13.812;2023-12-04T01:14:18;100790.84;;;-1.33;73.59
21730;BME280;11027;51.030;13.812;2023-12-04T01:16:43;100790.00;;;-1.34;73.78
21730;BME280;11027;51.030;13.812;2023-12-04T01:19:08;100788.47;;;-1.38;73.36
21730;BME280;11027;51.030;13.812;2023-12-04T01:21:33;100794.50;;;-1.34;73.14
21730;BME280;11027;51.030;13.812;2023-12-04T01:23:59;100796.47;;;-1.38;73.07
21730;BME280;11027;51.030;13.812;2023-12-04T01:26:24;100797.69;;;-1.44;72.92
21730;BME280;11027;51.030;13.812;2023-12-04T01:28:49;100794.25;;;-1.46;72.94
21730;BME280;11027;51.030;13.812;2023-12-04T01:31:14;100802.47;;;-1.49;72.74
21730;BME280;11027;51.030;13.812;2023-12-04T01:33:40;100806.06;;;-1.50;73.15
21730;BME280;11027;51.030;13.812;2023-12-04T01:36:05;100809.69;;;-1.51;73.15
21730;BME280;11027;51.030;13.812;2023-12-04T01:38:30;100809.09;;;-1.56;73.01
21730;BME280;11027;51.030;13.812;2023-12-04T01:40:56;100810.97;;;-1.58;73.33
21730;BME280;11027;51.030;13.812;2023-12-04T01:43:21;100810.41;;;-1.63;73.41
21730;BME280;11027;51.030;13.812;2023-12-04T01:45:46;100810.75;;;-1.69;73.76
21730;BME280;11027;51.030;13.812;2023-12-04T01:48:13;100806.41;;;-1.72;73.85
21730;BME280;11027;51.030;13.812;2023-12-04T01:50:39;100811.88;;;-1.73;73.70
21730;BME280;11027;51.030;13.812;2023-12-04T01:53:04;100804.00;;;-1.76;73.67
21730;BME280;11027;51.030;13.812;2023-12-04T01:55:32;100804.00;;;-1.76;73.32
21730;BME280;11027;51.030;13.812;2023-12-04T01:57:58;100805.13;;;-1.81;73.38
21730;BME280;11027;51.030;13.812;2023-12-04T02:00:25;100804.53;;;-1.86;73.43
21730;BME280;11027;51.030;13.812;2023-12-04T02:02:50;100811.00;;;-1.90;73.39
21730;BME280;11027;51.030;13.812;2023-12-04T02:05:16;100811.84;;;-1.89;73.16
21730;BME280;11027;51.030;13.812;2023-12-04T02:07:41;100803.00;;;-1.90;73.17
21730;BME280;11027;51.030;13.812;2023-12-04T02:10:07;100788.69;;;-1.89;73.01
21730;BME280;11027;51.030;13.812;2023-12-04T02:12:32;100795.75;;;-1.88;72.88
21730;BME280;11027;51.030;13.812;2023-12-04T02:14:58;100786.97;;;-1.90;72.24
21730;BME280;11027;51.030;13.812;2023-12-04T02:17:24;100785.22;;;-1.91;72.26
21730;BME280;11027;51.030;13.812;2023-12-04T02:19:49;100773.00;;;-1.95;72.05
21730;BME280;11027;51.030;13.812;2023-12-04T02:22:15;100758.88;;;-1.97;72.43
21730;BME280;11027;51.030;13.812;2023-12-04T02:24:42;100764.06;;;-1.94;72.20
21730;BME280;11027;51.030;13.812;2023-12-04T02:27:12;100762.16;;;-1.92;72.35
21730;BME280;11027;51.030;13.812;2023-12-04T02:29:47;100765.94;;;-1.96;72.79
21730;BME280;11027;51.030;13.812;2023-12-04T02:32:15;100752.81;;;-2.01;73.00
21730;BME280;11027;51.030;13.812;2023-12-04T02:34:42;100753.69;;;-2.00;73.54
21730;BME280;11027;51.030;13.812;2023-12-04T02:37:09;100748.34;;;-2.00;73.58
21730;BME280;11027;51.030;13.812;2023-12-04T02:39:36;100756.28;;;-1.98;73.65
21730;BME280;11027;51.030;13.812;2023-12-04T02:42:01;100758.88;;;-1.97;73.77
21730;BME280;11027;51.030;13.812;2023-12-04T02:44:27;100752.66;;;-1.97;73.68
21730;BME280;11027;51.030;13.812;2023-12-04T02:46:52;100745.34;;;-1.94;73.76
21730;BME280;11027;51.030;13.812;2023-12-04T02:49:17;100737.16;;;-1.91;73.74
21730;BME280;11027;51.030;13.812;2023-12-04T02:51:42;100730.75;;;-1.88;73.48
21730;BME280;11027;51.030;13.812;2023-12-04T02:54:08;100728.78;;;-1.85;73.54
21730;BME280;11027;51.030;13.812;2023-12-04T02:56:33;100724.22;;;-1.83;73.40
21730;BME280;11027;51.030;13.812;2023-12-04T02:58:58;100719.72;;;-1.82;73.46
21730;BME280;11027;51.030;13.812;2023-12-04T03:01:23;100707.41;;;-1.85;73.29
21730;BME280;11027;51.030;13.812;2023-12-04T03:03:49;100698.63;;;-1.87;73.49
21730;BME280;11027;51.030;13.812;2023-12-04T03:06:14;100700.44;;;-1.87;73.54
21730;BME280;11027;51.030;13.812;2023-12-04T03:08:42;100697.69;;;-1.86;73.66
21730;BME280;11027;51.030;13.812;2023-12-04T03:11:07;100697.69;;;-1.86;73.30
21730;BME280;11027;51.030;13.812;2023-12-04T03:13:32;100692.53;;;-1.89;73.48
21730;BME280;11027;51.030;13.812;2023-12-04T03:15:57;100689.78;;;-1.87;73.47
21730;BME280;11027;51.030;13.812;2023-12-04T03:18:23;100689.56;;;-1.84;73.38
21730;BME280;11027;51.030;13.812;2023-12-04T03:20:50;100687.88;;;-1.85;73.52
21730;BME280;11027;51.030;13.812;2023-12-04T03:23:15;100693.22;;;-1.85;73.38
21730;BME280;11027;51.030;13.812;2023-12-04T03:25:40;100685.28;;;-1.87;73.34
21730;BME280;11027;51.030;13.812;2023-12-04T03:28:06;100687.88;;;-1.85;73.37
21730;BME280;11027;51.030;13.812;2023-12-04T03:30:31;100687.78;;;-1.84;73.50
21730;BME280;11027;51.030;13.812;2023-12-04T03:32:56;100684.34;;;-1.86;73.36
21730;BME280;11027;51.030;13.812;2023-12-04T03:35:21;100694.25;;;-1.88;73.67
21730;BME280;11027;51.030;13.812;2023-12-04T03:37:47;100691.75;;;-1.91;73.69
21730;BME280;11027;51.030;13.812;2023-12-04T03:40:14;100677.53;;;-1.91;73.78
21730;BME280;11027;51.030;13.812;2023-12-04T03:42:39;100676.50;;;-1.89;73.90
21730;BME280;11027;51.030;13.812;2023-12-04T03:45:06;100674.44;;;-1.84;74.07
21730;BME280;11027;51.030;13.812;2023-12-04T03:47:31;100666.50;;;-1.85;73.73
21730;BME280;11027;51.030;13.812;2023-12-04T03:49:57;100667.34;;;-1.85;73.85
21730;BME280;11027;51.030;13.812;2023-12-04T03:52:22;100668.31;;;-1.86;73.54
21730;BME280;11027;51.030;13.812;2023-12-04T03:54:47;100662.22;;;-1.88;73.82
21730;BME280;11027;51.030;13.812;2023-12-04T03:57:12;100663.06;;;-1.87;73.90
21730;BME280;11027;51.030;13.812;2023-12-04T03:59:38;100663.91;;;-1.87;73.93
21730;BME280;11027;51.030;13.812;2023-12-04T04:02:03;100669.16;;;-1.85;74.06
21730;BME280;11027;51.030;13.812;2023-12-04T04:04:28;100669.25;;;-1.87;73.84
21730;BME280;11027;51.030;13.812;2023-12-04T04:06:54;100669.44;;;-1.90;73.90
21730;BME280;11027;51.030;13.812;2023-12-04T04:09:19;100667.72;;;-1.91;73.92
21730;BME280;11027;51.030;13.812;2023-12-04T04:11:45;100672.88;;;-1.88;74.04
21730;BME280;11027;51.030;13.812;2023-12-04T04:14:10;100665.81;;;-1.89;74.01
21730;BME280;11027;51.030;13.812;2023-12-04T04:16:35;100660.47;;;-1.89;73.98
21730;BME280;11027;51.030;13.812;2023-12-04T04:19:01;100658.41;;;-1.84;73.83
21730;BME280;11027;51.030;13.812;2023-12-04T04:21:26;100658.41;;;-1.84;73.81
21730;BME280;11027;51.030;13.812;2023-12-04T04:23:51;100654.78;;;-1.83;73.93
21730;BME280;11027;51.030;13.812;2023-12-04T04:26:18;100651.06;;;-1.80;74.05
21730;BME280;11027;51.030;13.812;2023-12-04T04:28:44;100658.97;;;-1.78;74.03
21730;BME280;11027;51.030;13.812;2023-12-04T04:31:09;100649.25;;;-1.79;73.91
21730;BME280;11027;51.030;13.812;2023-12-04T04:33:34;100652.88;;;-1.81;73.83
21730;BME280;11027;51.030;13.812;2023-12-04T04:35:59;100645.81;;;-1.82;73.70
21730;BME280;11027;51.030;13.812;2023-12-04T04:38:25;100642.19;;;-1.81;73.64
21730;BME280;11027;51.030;13.812;2023-12-04T04:40:50;100628.66;;;-1.77;73.57
21730;BME280;11027;51.030;13.812;2023-12-04T04:43:17;100633.03;;;-1.76;73.63
21730;BME280;11027;51.030;13.812;2023-12-04T04:45:43;100624.09;;;-1.75;73.55
21730;BME280;11027;51.030;13.812;2023-12-04T04:48:08;100631.06;;;-1.73;73.22
21730;BME280;11027;51.030;13.812;2023-12-04T04:50:33;100622.00;;;-1.70;73.10
21730;BME280;11027;51.030;13.812;2023-12-04T04:52:58;100622.75;;;-1.68;73.10
21730;BME280;11027;51.030;13.812;2023-12-04T04:55:24;100621.22;;;-1.72;73.07
21730;BME280;11027;51.030;13.812;2023-12-04T04:57:49;100625.78;;;-1.74;73.21
21730;BME280;11027;51.030;13.812;2023-12-04T05:00:14;100615.31;;;-1.77;73.14
21730;BME280;11027;51.030;13.812;2023-12-04T05:02:41;100624.25;;;-1.78;73.41
21730;BME280;11027;51.030;13.812;2023-12-04T05:05:06;100617.00;;;-1.76;73.38
21730;BME280;11027;51.030;13.812;2023-12-04T05:07:31;100609.75;;;-1.74;73.34
21730;BME280;11027;51.030;13.812;2023-12-04T05:09:57;100614.75;;;-1.68;73.28
21730;BME280;11027;51.030;13.812;2023-12-04T05:12:22;100619.72;;;-1.62;73.43
21730;BME280;11027;51.030;13.812;2023-12-04T05:14:47;100624.91;;;-1.59;73.29
21730;BME280;11027;51.030;13.812;2023-12-04T05:17:12;100620.41;;;-1.58;73.17
21730;BME280;11027;51.030;13.812;2023-12-04T05:19:38;100633.31;;;-1.51;73.24
21730;BME280;11027;51.030;13.812;2023-12-04T05:22:03;100625.69;;;-1.43;72.99
21730;BME280;11027;51.030;13.812;2023-12-04T05:24:28;100636.00;;;-1.36;72.84
21730;BME280;11027;51.030;13.812;2023-12-04T05:26:53;100630.47;;;-1.33;72.63
21730;BME280;11027;51.030;13.812;2023-12-04T05:29:19;100633.94;;;-1.31;72.58
21730;BME280;11027;51.030;13.812;2023-12-04T05:31:44;100632.88;;;-1.29;72.46
21730;BME280;11027;51.030;13.812;2023-12-04T05:34:09;100629.25;;;-1.28;72.33
21730;BME280;11027;51.030;13.812;2023-12-04T05:36:34;100623.50;;;-1.22;72.33
21730;BME280;11027;51.030;13.812;2023-12-04T05:39:00;100612.66;;;-1.18;72.25
21730;BME280;11027;51.030;13.812;2023-12-04T05:41:25;100611.59;;;-1.16;72.01
21730;BME280;11027;51.030;13.812;2023-12-04T05:43:50;100604.25;;;-1.12;72.13
21730;BME280;11027;51.030;13.812;2023-12-04T05:46:15;100604.16;;;-1.11;71.77
21730;BME280;11027;51.030;13.812;2023-12-04T05:48:41;100593.25;;;-1.08;71.83
21730;BME280;11027;51.030;13.812;2023-12-04T05:51:06;100595.38;;;-1.13;71.87
21730;BME280;11027;51.030;13.812;2023-12-04T05:53:31;100586.38;;;-1.12;71.80
21730;BME280;11027;51.030;13.812;2023-12-04T05:55:57;100579.13;;;-1.10;71.54
21730;BME280;11027;51.030;13.812;2023-12-04T05:58:22;100576.25;;;-1.07;71.37
21730;BME280;11027;51.030;13.812;2023-12-04T06:00:47;100568.03;;;-1.04;71.08
21730;BME280;11027;51.030;13.812;2023-12-04T06:03:12;100555.72;;;-1.06;71.15
21730;BME280;11027;51.030;13.812;2023-12-04T06:05:38;100554.75;;;-1.05;70.95
21730;BME280;11027;51.030;13.812;2023-12-04T06:08:03;100544.94;;;-1.05;71.00
21730;BME280;11027;51.030;13.812;2023-12-04T06:10:28;100532.50;;;-1.06;70.78
21730;BME280;11027;51.030;13.812;2023-12-04T06:12:54;100539.69;;;-1.06;70.61
21730;BME280;11027;51.030;13.812;2023-12-04T06:15:19;100535.38;;;-1.09;70.51
21730;BME280;11027;51.030;13.812;2023-12-04T06:17:44;100530.97;;;-1.10;70.29
21730;BME280;11027;51.030;13.812;2023-12-04T06:20:10;100535.38;;;-1.09;70.50
21730;BME280;11027;51.030;13.812;2023-12-04T06:22:36;100543.41;;;-1.09;70.34
21730;BME280;11027;51.030;13.812;2023-12-04T06:25:02;100539.22;;;-1.13;70.10
21730;BME280;11027;51.030;13.812;2023-12-04T06:27:27;100542.91;;;-1.15;70.07
21730;BME280;11027;51.030;13.812;2023-12-04T06:29:53;100547.50;;;-1.17;70.05
21730;BME280;11027;51.030;13.812;2023-12-04T06:32:18;100538.72;;;-1.19;69.99
21730;BME280;11027;51.030;13.812;2023-12-04T06:34:44;100542.28;;;-1.19;69.90
21730;BME280;11027;51.030;13.812;2023-12-04T06:37:12;100537.78;;;-1.18;69.79
21730;BME280;11027;51.030;13.812;2023-12-04T06:39:39;100527.25;;;-1.22;69.62
21730;BME280;11027;51.030;13.812;2023-12-04T06:42:08;100531.75;;;-1.22;69.72
21730;BME280;11027;51.030;13.812;2023-12-04T06:44:35;100533.50;;;-1.21;69.72
21730;BME280;11027;51.030;13.812;2023-12-04T06:47:01;100546.09;;;-1.23;69.63
21730;BME280;11027;51.030;13.812;2023-12-04T06:49:31;100535.41;;;-1.23;69.50
21730;BME280;11027;51.030;13.812;2023-12-04T06:51:56;100537.31;;;-1.25;69.60
21730;BME280;11027;51.030;13.812;2023-12-04T06:54:21;100538.34;;;-1.28;69.62
21730;BME280;11027;51.030;13.812;2023-12-04T06:56:47;100535.78;;;-1.29;69.72
21730;BME280;11027;51.030;13.812;2023-12-04T06:59:12;100541.97;;;-1.29;69.84
21730;BME280;11027;51.030;13.812;2023-12-04T07:01:37;100539.22;;;-1.27;69.69
21730;BME280;11027;51.030;13.812;2023-12-04T07:04:03;100533.88;;;-1.27;69.60
21730;BME280;11027;51.030;13.812;2023-12-04T07:06:38;100541.91;;;-1.27;69.71
21730;BME280;11027;51.030;13.812;2023-12-04T07:09:03;100544.34;;;-1.24;69.54
21730;BME280;11027;51.030;13.812;2023-12-04T07:11:29;100548.78;;;-1.23;69.47
21730;BME280;11027;51.030;13.812;2023-12-04T07:13:55;100544.34;;;-1.24;69.25
21730;BME280;11027;51.030;13.812;2023-12-04T07:16:20;100553.22;;;-1.24;69.26
21730;BME280;11027;51.030;13.812;2023-12-04T07:18:45;100548.78;;;-1.23;69.48
21730;BME280;11027;51.030;13.812;2023-12-04T07:21:11;100556.78;;;-1.23;69.18
21730;BME280;11027;51.030;13.812;2023-12-04T07:23:36;100556.59;;;-1.20;68.95
21730;BME280;11027;51.030;13.812;2023-12-04T07:26:01;100554.88;;;-1.21;68.74
21730;BME280;11027;51.030;13.812;2023-12-04T07:28:27;100551.22;;;-1.20;68.84
21730;BME280;11027;51.030;13.812;2023-12-04T07:30:54;100544.19;;;-1.21;68.75
21730;BME280;11027;51.030;13.812;2023-12-04T07:33:19;100533.28;;;-1.18;68.68
21730;BME280;11027;51.030;13.812;2023-12-04T07:35:45;100531.38;;;-1.16;68.70
21730;BME280;11027;51.030;13.812;2023-12-04T07:38:10;100532.91;;;-1.12;68.46
21730;BME280;11027;51.030;13.812;2023-12-04T07:40:35;100543.59;;;-1.12;68.62
21730;BME280;11027;51.030;13.812;2023-12-04T07:43:00;100538.06;;;-1.09;68.46
21730;BME280;11027;51.030;13.812;2023-12-04T07:45:26;100540.75;;;-1.09;68.37
21730;BME280;11027;51.030;13.812;2023-12-04T07:47:52;100539.00;;;-1.10;68.34
21730;BME280;11027;51.030;13.812;2023-12-04T07:50:17;100529.16;;;-1.09;68.29
21730;BME280;11027;51.030;13.812;2023-12-04T07:52:42;100522.00;;;-1.09;68.12
21730;BME280;11027;51.030;13.812;2023-12-04T07:55:08;100522.78;;;-1.07;68.17
21730;BME280;11027;51.030;13.812;2023-12-04T07:57:33;100526.00;;;-1.02;68.17
21730;BME280;11027;51.030;13.812;2023-12-04T07:59:58;100524.66;;;-0.94;67.96
21730;BME280;11027;51.030;13.812;2023-12-04T08:02:23;100520.00;;;-0.91;67.85
21730;BME280;11027;51.030;13.812;2023-12-04T08:04:49;100508.00;;;-0.85;67.76
21730;BME280;11027;51.030;13.812;2023-12-04T08:07:14;100505.69;;;-0.77;67.75
21730;BME280;11027;51.030;13.812;2023-12-04T08:09:40;100511.81;;;-0.75;67.43
21730;BME280;11027;51.030;13.812;2023-12-04T08:12:06;100501.69;;;-0.70;67.30
21730;BME280;11027;51.030;13.812;2023-12-04T08:14:31;100513.13;;;-0.68;67.13
21730;BME280;11027;51.030;13.812;2023-12-04T08:16:57;100505.28;;;-0.71;67.01
21730;BME280;11027;51.030;13.812;2023-12-04T08:19:23;100499.94;;;-0.71;67.20
21730;BME280;11027;51.030;13.812;2023-12-04T08:21:48;100513.13;;;-0.68;66.96
21730;BME280;11027;51.030;13.812;2023-12-04T08:24:14;100511.03;;;-0.63;66.97
21730;BME280;11027;51.030;13.812;2023-12-04T08:26:41;100506.44;;;-0.61;66.98
21730;BME280;11027;51.030;13.812;2023-12-04T08:29:06;100503.34;;;-0.54;66.81
21730;BME280;11027;51.030;13.812;2023-12-04T08:31:32;100508.72;;;-0.54;66.56
21730;BME280;11027;51.030;13.812;2023-12-04T08:33:57;100508.16;;;-0.47;66.73
21730;BME280;11027;51.030;13.812;2023-12-04T08:36:22;100494.50;;;-0.42;66.60
21730;BME280;11027;51.030;13.812;2023-12-04T08:38:48;100496.03;;;-0.38;66.42
21730;BME280;11027;51.030;13.812;2023-12-04T08:41:13;100494.75;;;-0.32;66.53
21730;BME280;11027;51.030;13.812;2023-12-04T08:43:38;100498.41;;;-0.21;66.35
21730;BME280;11027;51.030;13.812;2023-12-04T08:46:04;100492.44;;;-0.11;66.32
21730;BME280;11027;51.030;13.812;2023-12-04T08:48:29;100503.81;;;-0.08;66.13
21730;BME280;11027;51.030;13.812;2023-12-04T08:50:54;100500.81;;;-0.03;66.01
21730;BME280;11027;51.030;13.812;2023-12-04T08:53:20;100491.41;;;0.04;65.95
21730;BME280;11027;51.030;13.812;2023-12-04T08:55:45;100495.47;;;0.10;65.84
21730;BME280;11027;51.030;13.812;2023-12-04T08:58:10;100499.34;;;0.18;65.77
21730;BME280;11027;51.030;13.812;2023-12-04T09:00:36;100487.44;;;0.23;65.43
21730;BME280;11027;51.030;13.812;2023-12-04T09:03:03;100485.38;;;0.26;65.38
21730;BME280;11027;51.030;13.812;2023-12-04T09:05:28;100489.69;;;0.29;64.86
21730;BME280;11027;51.030;13.812;2023-12-04T09:07:53;100490.03;;;0.37;64.99
21730;BME280;11027;51.030;13.812;2023-12-04T09:10:18;100497.84;;;0.40;64.40
21730;BME280;11027;51.030;13.812;2023-12-04T09:12:44;100481.56;;;0.43;64.59
21730;BME280;11027;51.030;13.812;2023-12-04T09:15:10;100477.69;;;0.47;64.65
21730;BME280;11027;51.030;13.812;2023-12-04T09:17:36;100472.09;;;0.50;64.48
21730;BME280;11027;51.030;13.812;2023-12-04T09:20:02;100468.97;;;0.56;64.48
21730;BME280;11027;51.030;13.812;2023-12-04T09:22:27;100469.72;;;0.58;64.32
21730;BME280;11027;51.030;13.812;2023-12-04T09:24:53;100472.53;;;0.57;64.00
21730;BME280;11027;51.030;13.812;2023-12-04T09:27:18;100472.41;;;0.58;63.85
21730;BME280;11027;51.030;13.812;2023-12-04T09:29:43;100463.06;;;0.64;63.99
21730;BME280;11027;51.030;13.812;2023-12-04T09:32:09;100472.75;;;0.67;63.89
21730;BME280;11027;51.030;13.812;2023-12-04T09:34:35;100469.72;;;0.71;64.00
21730;BME280;11027;51.030;13.812;2023-12-04T09:37:00;100470.13;;;0.78;63.77
21730;BME280;11027;51.030;13.812;2023-12-04T09:39:26;100460.69;;;0.85;63.66
21730;BME280;11027;51.030;13.812;2023-12-04T09:41:51;100455.94;;;0.89;63.44
21730;BME280;11027;51.030;13.812;2023-12-04T09:44:19;100456.81;;;0.89;63.27
21730;BME280;11027;51.030;13.812;2023-12-04T09:46:44;100450.13;;;0.95;63.48
21730;BME280;11027;51.030;13.812;2023-12-04T09:49:10;100448.81;;;1.00;63.39
21730;BME280;11027;51.030;13.812;2023-12-04T09:51:37;100447.06;;;1.12;63.55
21730;BME280;11027;51.030;13.812;2023-12-04T09:54:03;100432.00;;;1.23;63.33
21730;BME280;11027;51.030;13.812;2023-12-04T09:56:29;100432.28;;;1.31;62.97
21730;BME280;11027;51.030;13.812;2023-12-04T09:59:00;100430.00;;;1.37;63.02
21730;BME280;11027;51.030;13.812;2023-12-04T10:01:28;100418.41;;;1.37;62.79
21730;BME280;11027;51.030;13.812;2023-12-04T10:03:54;100415.38;;;1.42;62.66
21730;BME280;11027;51.030;13.812;2023-12-04T10:06:23;100409.75;;;1.45;62.48
21730;BME280;11027;51.030;13.812;2023-12-04T10:08:51;100404.19;;;1.48;62.48
21730;BME280;11027;51.030;13.812;2023-12-04T10:11:16;100397.72;;;1.50;62.29
21730;BME280;11027;51.030;13.812;2023-12-04T10:13:42;100385.66;;;1.56;62.40
21730;BME280;11027;51.030;13.812;2023-12-04T10:16:07;100389.56;;;1.63;62.42
21730;BME280;11027;51.030;13.812;2023-12-04T10:18:33;100381.50;;;1.63;62.14
21730;BME280;11027;51.030;13.812;2023-12-04T10:20:59;100377.84;;;1.64;62.25
21730;BME280;11027;51.030;13.812;2023-12-04T10:23:54;100376.38;;;1.60;62.01
21730;BME280;11027;51.030;13.812;2023-12-04T10:26:19;100367.59;;;1.58;61.88
21730;BME280;11027;51.030;13.812;2023-12-04T10:29:01;100362.44;;;1.55;61.63
21730;BME280;11027;51.030;13.812;2023-12-04T10:31:26;100357.06;;;1.55;61.91
21730;BME280;11027;51.030;13.812;2023-12-04T10:33:56;100362.81;;;1.62;61.92
21730;BME280;11027;51.030;13.812;2023-12-04T10:36:21;100354.41;;;1.66;61.63
21730;BME280;11027;51.030;13.812;2023-12-04T10:38:57;100357.84;;;1.68;61.92
21730;BME280;11027;51.030;13.812;2023-12-04T10:41:22;100347.72;;;1.72;61.73
21730;BME280;11027;51.030;13.812;2023-12-04T10:43:48;100343.19;;;1.72;61.43
21730;BME280;11027;51.030;13.812;2023-12-04T10:46:14;100345.41;;;1.78;61.43
21730;BME280;11027;51.030;13.812;2023-12-04T10:48:41;100353.22;;;1.82;61.08
21730;BME280;11027;51.030;13.812;2023-12-04T10:51:11;100347.00;;;1.81;60.94
21730;BME280;11027;51.030;13.812;2023-12-04T10:53:37;100338.56;;;1.86;61.03
21730;BME280;11027;51.030;13.812;2023-12-04T10:56:07;100332.84;;;1.90;60.43
21730;BME280;11027;51.030;13.812;2023-12-04T10:58:36;100340.03;;;1.90;60.29
21730;BME280;11027;51.030;13.812;2023-12-04T11:01:06;100340.03;;;1.90;60.53
21730;BME280;11027;51.030;13.812;2023-12-04T11:03:41;100329.28;;;1.90;60.48
21730;BME280;11027;51.030;13.812;2023-12-04T11:06:10;100322.22;;;1.89;60.25
21730;BME280;11027;51.030;13.812;2023-12-04T11:08:36;100318.53;;;1.90;60.28
21730;BME280;11027;51.030;13.812;2023-12-04T11:11:04;100320.88;;;1.94;60.26
21730;BME280;11027;51.030;13.812;2023-12-04T11:13:35;100319.78;;;1.97;59.81
21730;BME280;11027;51.030;13.812;2023-12-04T11:16:25;100328.06;;;1.94;59.80
21730;BME280;11027;51.030;13.812;2023-12-04T11:18:51;100321.09;;;1.91;59.84
21730;BME280;11027;51.030;13.812;2023-12-04T11:21:20;100312.66;;;1.96;59.81
21730;BME280;11027;51.030;13.812;2023-12-04T11:23:46;100308.78;;;2.00;59.74
21730;BME280;11027;51.030;13.812;2023-12-04T11:26:11;100292.06;;;1.96;59.72
21730;BME280;11027;51.030;13.812;2023-12-04T11:28:37;100299.13;;;1.97;59.56
21730;BME280;11027;51.030;13.812;2023-12-04T11:31:04;100285.81;;;1.96;59.48
21730;BME280;11027;51.030;13.812;2023-12-04T11:33:37;100282.16;;;1.97;59.50
21730;BME280;11027;51.030;13.812;2023-12-04T11:36:09;100277.75;;;1.96;59.54
21730;BME280;11027;51.030;13.812;2023-12-04T11:38:36;100271.41;;;1.97;59.70
21730;BME280;11027;51.030;13.812;2023-12-04T11:41:14;100260.88;;;1.94;59.85
21730;BME280;11027;51.030;13.812;2023-12-04T11:43:41;100250.41;;;1.91;59.98
21730;BME280;11027;51.030;13.812;2023-12-04T11:46:08;100250.63;;;1.88;59.95
21730;BME280;11027;51.030;13.812;2023-12-04T11:48:39;100237.34;;;1.86;60.23
21730;BME280;11027;51.030;13.812;2023-12-04T11:51:08;100236.47;;;1.86;60.19
21730;BME280;11027;51.030;13.812;2023-12-04T11:53:39;100227.69;;;1.84;60.17
21730;BME280;11027;51.030;13.812;2023-12-04T11:56:09;100218.88;;;1.82;60.23
21730;BME280;11027;51.030;13.812;2023-12-04T11:58:42;100217.44;;;1.77;60.14
21730;BME280;11027;51.030;13.812;2023-12-04T12:01:07;100210.34;;;1.76;60.34
21730;BME280;11027;51.030;13.812;2023-12-04T12:03:32;100194.75;;;1.70;60.24
21730;BME280;11027;51.030;13.812;2023-12-04T12:05:57;100194.75;;;1.70;60.58
21730;BME280;11027;51.030;13.812;2023-12-04T12:08:23;100196.44;;;1.71;60.46
21730;BME280;11027;51.030;13.812;2023-12-04T12:10:49;100195.47;;;1.72;60.71
21730;BME280;11027;51.030;13.812;2023-12-04T12:13:14;100188.13;;;1.74;60.78
21730;BME280;11027;51.030;13.812;2023-12-04T12:15:40;100181.03;;;1.73;61.09
21730;BME280;11027;51.030;13.812;2023-12-04T12:18:06;100188.88;;;1.76;61.01
21730;BME280;11027;51.030;13.812;2023-12-04T12:20:31;100184.97;;;1.80;60.97
21730;BME280;11027;51.030;13.812;2023-12-04T12:22:56;100172.00;;;1.86;61.03
21730;BME280;11027;51.030;13.812;2023-12-04T12:25:22;100168.81;;;1.92;60.97
21730;BME280;11027;51.030;13.812;2023-12-04T12:27:48;100163.91;;;1.97;60.91
21730;BME280;11027;51.030;13.812;2023-12-04T12:30:13;100168.78;;;2.03;60.76
21730;BME280;11027;51.030;13.812;2023-12-04T12:32:39;100171.97;;;2.08;60.61
21730;BME280;11027;51.030;13.812;2023-12-04T12:35:05;100151.31;;;2.09;60.44
21730;BME280;11027;51.030;13.812;2023-12-04T12:37:32;100156.69;;;2.09;60.47